sensor_id;sensor_type;location;lat;lon;timestamp;P1;durP1;ratioP1;P2;durP2;ratioP2
76745;SDS011;65671;49.976;20.038;2023-02-01T00:01:55;5.47;;;3.40;;
76745;SDS011;65671;49.976;20.038;2023-02-01T00:04:22;7.53;;;3.83;;
76745;SDS011;65671;49.976;20.038;2023-02-01T00:06:48;7.30;;;3.40;;
76745;SDS011;65671;49.976;20.038;2023-02-01T00:09:13;6.25;;;3.70;;
76745;SDS011;65671;49.976;20.038;2023-02-01T00:14:04;6.47;;;4.20;;
76745;SDS011;65671;49.976;20.038;2023-02-01T00:16:30;8.70;;;4.47;;
76745;SDS011;65671;49.976;20.038;2023-02-01T00:18:57;5.38;;;3.78;;
76745;SDS011;65671;49.976;20.038;2023-02-01T00:21:26;8.32;;;3.70;;
76745;SDS011;65671;49.976;20.038;2023-02-01T00:23:52;5.57;;;4.40;;
76745;SDS011;65671;49.976;20.038;2023-02-01T00:26:19;6.43;;;4.22;;
76745;SDS011;65671;49.976;20.038;2023-02-01T00:28:48;8.25;;;4.43;;
76745;SDS011;65671;49.976;20.038;2023-02-01T00:31:13;5.72;;;3.50;;
76745;SDS011;65671;49.976;20.038;2023-02-01T00:33:39;7.68;;;3.78;;
76745;SDS011;65671;49.976;20.038;2023-02-01T00:36:06;6.85;;;4.40;;
76745;SDS011;65671;49.976;20.038;2023-02-01T00:38:33;6.00;;;3.95;;
76745;SDS011;65671;49.976;20.038;2023-02-01T00:41:02;6.90;;;3.63;;
76745;SDS011;65671;49.976;20.038;2023-02-01T00:43:37;7.78;;;4.68;;
76745;SDS011;65671;49.976;20.038;2023-02-01T00:46:03;6.35;;;3.70;;
76745;SDS011;65671;49.976;20.038;2023-02-01T00:48:28;7.00;;;3.88;;
76745;SDS011;65671;49.976;20.038;2023-02-01T00:53:23;6.43;;;3.85;;
76745;SDS011;65671;49.976;20.038;2023-02-01T00:55:49;5.57;;;3.85;;
76745;SDS011;65671;49.976;20.038;2023-02-01T01:00:40;4.78;;;3.10;;
76745;SDS011;65671;49.976;20.038;2023-02-01T01:03:09;5.72;;;3.80;;
76745;SDS011;65671;49.976;20.038;2023-02-01T01:05:44;6.60;;;3.90;;
76745;SDS011;65671;49.976;20.038;2023-02-01T01:08:11;5.97;;;3.72;;
76745;SDS011;65671;49.976;20.038;2023-02-01T01:10:37;5.13;;;3.25;;
76745;SDS011;65671;49.976;20.038;2023-02-01T01:13:03;4.85;;;3.42;;
76745;SDS011;65671;49.976;20.038;2023-02-01T01:17:54;5.28;;;3.17;;
76745;SDS011;65671;49.976;20.038;2023-02-01T01:22:47;6.35;;;3.67;;
76745;SDS011;65671;49.976;20.038;2023-02-01T01:25:13;6.60;;;3.13;;
76745;SDS011;65671;49.976;20.038;2023-02-01T01:27:39;4.18;;;2.72;;
76745;SDS011;65671;49.976;20.038;2023-02-01T01:30:05;4.25;;;2.72;;
76745;SDS011;65671;49.976;20.038;2023-02-01T01:32:31;5.18;;;3.10;;
76745;SDS011;65671;49.976;20.038;2023-02-01T01:37:22;5.40;;;3.03;;
76745;SDS011;65671;49.976;20.038;2023-02-01T01:42:13;5.07;;;3.08;;
76745;SDS011;65671;49.976;20.038;2023-02-01T01:47:28;4.70;;;3.15;;
76745;SDS011;65671;49.976;20.038;2023-02-01T01:50:01;5.60;;;4.13;;
76745;SDS011;65671;49.976;20.038;2023-02-01T01:52:29;8.85;;;4.55;;
76745;SDS011;65671;49.976;20.038;2023-02-01T01:57:24;4.45;;;3.13;;
76745;SDS011;65671;49.976;20.038;2023-02-01T01:59:53;6.35;;;3.90;;
76745;SDS011;65671;49.976;20.038;2023-02-01T02:02:23;8.75;;;3.90;;
76745;SDS011;65671;49.976;20.038;2023-02-01T02:04:50;6.45;;;3.80;;
76745;SDS011;65671;49.976;20.038;2023-02-01T02:07:17;6.38;;;3.75;;
76745;SDS011;65671;49.976;20.038;2023-02-01T02:09:48;5.15;;;3.45;;
76745;SDS011;65671;49.976;20.038;2023-02-01T02:12:13;6.88;;;3.90;;
76745;SDS011;65671;49.976;20.038;2023-02-01T02:14:39;5.30;;;3.20;;
76745;SDS011;65671;49.976;20.038;2023-02-01T02:28:00;5.07;;;2.85;;
76745;SDS011;65671;49.976;20.038;2023-02-01T02:36:29;6.43;;;3.03;;
76745;SDS011;65671;49.976;20.038;2023-02-01T02:41:43;3.28;;;2.03;;
76745;SDS011;65671;49.976;20.038;2023-02-01T02:47:33;3.83;;;2.33;;
76745;SDS011;65671;49.976;20.038;2023-02-01T02:52:41;5.20;;;1.80;;
76745;SDS011;65671;49.976;20.038;2023-02-01T02:55:29;3.55;;;2.00;;
76745;SDS011;65671;49.976;20.038;2023-02-01T02:57:58;4.68;;;1.55;;
76745;SDS011;65671;49.976;20.038;2023-02-01T03:00:43;3.00;;;1.55;;
76745;SDS011;65671;49.976;20.038;2023-02-01T03:03:28;8.20;;;2.22;;
76745;SDS011;65671;49.976;20.038;2023-02-01T03:06:13;3.08;;;1.48;;
76745;SDS011;65671;49.976;20.038;2023-02-01T03:08:41;5.03;;;1.85;;
76745;SDS011;65671;49.976;20.038;2023-02-01T03:11:11;4.13;;;2.28;;
76745;SDS011;65671;49.976;20.038;2023-02-01T03:21:45;4.35;;;1.98;;
76745;SDS011;65671;49.976;20.038;2023-02-01T03:26:52;7.65;;;2.40;;
76745;SDS011;65671;49.976;20.038;2023-02-01T03:29:30;5.57;;;2.15;;
76745;SDS011;65671;49.976;20.038;2023-02-01T03:32:13;4.18;;;1.70;;
76745;SDS011;65671;49.976;20.038;2023-02-01T03:34:38;5.05;;;3.05;;
76745;SDS011;65671;49.976;20.038;2023-02-01T03:37:06;7.90;;;2.60;;
76745;SDS011;65671;49.976;20.038;2023-02-01T03:42:31;5.60;;;2.75;;
76745;SDS011;65671;49.976;20.038;2023-02-01T03:47:34;7.25;;;2.80;;
76745;SDS011;65671;49.976;20.038;2023-02-01T03:50:07;4.35;;;2.58;;
76745;SDS011;65671;49.976;20.038;2023-02-01T03:52:40;7.38;;;3.38;;
76745;SDS011;65671;49.976;20.038;2023-02-01T03:55:09;6.95;;;3.17;;
76745;SDS011;65671;49.976;20.038;2023-02-01T03:57:41;8.05;;;2.55;;
76745;SDS011;65671;49.976;20.038;2023-02-01T04:00:16;9.50;;;3.90;;
76745;SDS011;65671;49.976;20.038;2023-02-01T04:02:45;5.25;;;2.58;;
76745;SDS011;65671;49.976;20.038;2023-02-01T04:05:10;6.82;;;3.05;;
76745;SDS011;65671;49.976;20.038;2023-02-01T04:07:36;7.60;;;3.40;;
76745;SDS011;65671;49.976;20.038;2023-02-01T04:10:02;18.23;;;3.15;;
76745;SDS011;65671;49.976;20.038;2023-02-01T04:12:29;6.18;;;3.33;;
76745;SDS011;65671;49.976;20.038;2023-02-01T04:14:54;7.53;;;3.88;;
76745;SDS011;65671;49.976;20.038;2023-02-01T04:17:20;6.38;;;3.72;;
76745;SDS011;65671;49.976;20.038;2023-02-01T04:19:45;5.32;;;3.28;;
76745;SDS011;65671;49.976;20.038;2023-02-01T04:22:11;7.57;;;3.30;;
76745;SDS011;65671;49.976;20.038;2023-02-01T04:24:37;11.00;;;3.42;;
76745;SDS011;65671;49.976;20.038;2023-02-01T04:29:29;6.88;;;3.08;;
76745;SDS011;65671;49.976;20.038;2023-02-01T04:31:54;7.30;;;3.95;;
76745;SDS011;65671;49.976;20.038;2023-02-01T04:34:20;7.82;;;3.92;;
76745;SDS011;65671;49.976;20.038;2023-02-01T04:36:47;7.53;;;3.90;;
76745;SDS011;65671;49.976;20.038;2023-02-01T04:39:13;9.85;;;4.25;;
76745;SDS011;65671;49.976;20.038;2023-02-01T04:41:39;8.55;;;3.72;;
76745;SDS011;65671;49.976;20.038;2023-02-01T04:44:04;7.20;;;3.28;;
76745;SDS011;65671;49.976;20.038;2023-02-01T04:46:30;7.72;;;3.25;;
76745;SDS011;65671;49.976;20.038;2023-02-01T04:48:56;6.57;;;3.03;;
76745;SDS011;65671;49.976;20.038;2023-02-01T04:51:21;7.28;;;3.05;;
76745;SDS011;65671;49.976;20.038;2023-02-01T04:53:47;6.50;;;2.70;;
76745;SDS011;65671;49.976;20.038;2023-02-01T04:56:12;8.25;;;3.40;;
76745;SDS011;65671;49.976;20.038;2023-02-01T04:58:38;4.93;;;3.30;;
76745;SDS011;65671;49.976;20.038;2023-02-01T05:01:05;6.68;;;3.17;;
76745;SDS011;65671;49.976;20.038;2023-02-01T05:03:32;9.73;;;2.97;;
76745;SDS011;65671;49.976;20.038;2023-02-01T05:05:59;4.90;;;3.78;;
76745;SDS011;65671;49.976;20.038;2023-02-01T05:08:25;5.63;;;2.95;;
76745;SDS011;65671;49.976;20.038;2023-02-01T05:10:52;7.45;;;3.40;;
76745;SDS011;65671;49.976;20.038;2023-02-01T05:13:18;7.80;;;3.45;;
76745;SDS011;65671;49.976;20.038;2023-02-01T05:16:02;9.02;;;3.67;;
76745;SDS011;65671;49.976;20.038;2023-02-01T05:18:28;6.20;;;3.63;;
76745;SDS011;65671;49.976;20.038;2023-02-01T05:20:54;10.13;;;3.78;;
76745;SDS011;65671;49.976;20.038;2023-02-01T05:25:45;11.65;;;5.20;;
76745;SDS011;65671;49.976;20.038;2023-02-01T05:28:11;10.43;;;5.20;;
76745;SDS011;65671;49.976;20.038;2023-02-01T05:30:36;8.07;;;5.25;;
76745;SDS011;65671;49.976;20.038;2023-02-01T05:33:02;9.13;;;5.38;;
76745;SDS011;65671;49.976;20.038;2023-02-01T05:35:29;7.65;;;5.43;;
76745;SDS011;65671;49.976;20.038;2023-02-01T05:37:54;9.95;;;6.90;;
76745;SDS011;65671;49.976;20.038;2023-02-01T05:42:45;8.30;;;5.03;;
76745;SDS011;65671;49.976;20.038;2023-02-01T05:47:37;10.50;;;4.93;;
76745;SDS011;65671;49.976;20.038;2023-02-01T05:50:03;8.02;;;3.90;;
76745;SDS011;65671;49.976;20.038;2023-02-01T05:52:30;7.68;;;4.15;;
76745;SDS011;65671;49.976;20.038;2023-02-01T05:54:56;10.52;;;4.05;;
76745;SDS011;65671;49.976;20.038;2023-02-01T05:57:21;5.45;;;3.78;;
76745;SDS011;65671;49.976;20.038;2023-02-01T05:59:47;8.02;;;3.38;;
76745;SDS011;65671;49.976;20.038;2023-02-01T06:02:14;6.30;;;3.05;;
76745;SDS011;65671;49.976;20.038;2023-02-01T06:04:40;6.13;;;3.33;;
76745;SDS011;65671;49.976;20.038;2023-02-01T06:07:06;5.93;;;3.45;;
76745;SDS011;65671;49.976;20.038;2023-02-01T06:09:33;6.45;;;3.30;;
76745;SDS011;65671;49.976;20.038;2023-02-01T06:11:59;8.90;;;3.10;;
76745;SDS011;65671;49.976;20.038;2023-02-01T06:14:26;4.68;;;2.65;;
76745;SDS011;65671;49.976;20.038;2023-02-01T06:16:52;5.90;;;2.70;;
76745;SDS011;65671;49.976;20.038;2023-02-01T06:19:19;9.55;;;3.22;;
76745;SDS011;65671;49.976;20.038;2023-02-01T06:21:45;11.63;;;3.88;;
76745;SDS011;65671;49.976;20.038;2023-02-01T06:26:36;6.90;;;2.47;;
76745;SDS011;65671;49.976;20.038;2023-02-01T06:29:02;6.15;;;2.58;;
76745;SDS011;65671;49.976;20.038;2023-02-01T06:31:28;4.20;;;2.22;;
76745;SDS011;65671;49.976;20.038;2023-02-01T06:33:54;6.25;;;2.55;;
76745;SDS011;65671;49.976;20.038;2023-02-01T06:38:46;10.30;;;2.88;;
76745;SDS011;65671;49.976;20.038;2023-02-01T06:41:13;4.13;;;2.97;;
76745;SDS011;65671;49.976;20.038;2023-02-01T06:46:05;7.03;;;2.85;;
76745;SDS011;65671;49.976;20.038;2023-02-01T06:48:33;9.75;;;2.30;;
76745;SDS011;65671;49.976;20.038;2023-02-01T06:50:59;7.82;;;2.53;;
76745;SDS011;65671;49.976;20.038;2023-02-01T06:53:25;8.82;;;2.92;;
76745;SDS011;65671;49.976;20.038;2023-02-01T06:56:02;5.63;;;2.60;;
76745;SDS011;65671;49.976;20.038;2023-02-01T06:58:28;6.47;;;2.63;;
76745;SDS011;65671;49.976;20.038;2023-02-01T07:00:58;9.80;;;2.80;;
76745;SDS011;65671;49.976;20.038;2023-02-01T07:03:29;4.72;;;2.10;;
76745;SDS011;65671;49.976;20.038;2023-02-01T07:08:21;8.40;;;2.13;;
76745;SDS011;65671;49.976;20.038;2023-02-01T07:13:12;4.43;;;2.07;;
76745;SDS011;65671;49.976;20.038;2023-02-01T07:15:37;6.88;;;2.22;;
76745;SDS011;65671;49.976;20.038;2023-02-01T07:20:28;5.85;;;2.33;;
76745;SDS011;65671;49.976;20.038;2023-02-01T07:22:55;8.13;;;2.58;;
76745;SDS011;65671;49.976;20.038;2023-02-01T07:25:21;8.95;;;2.70;;
76745;SDS011;65671;49.976;20.038;2023-02-01T07:27:48;4.93;;;2.28;;
76745;SDS011;65671;49.976;20.038;2023-02-01T07:32:39;10.13;;;2.33;;
76745;SDS011;65671;49.976;20.038;2023-02-01T07:37:30;10.20;;;2.60;;
76745;SDS011;65671;49.976;20.038;2023-02-01T07:42:21;6.30;;;3.15;;
76745;SDS011;65671;49.976;20.038;2023-02-01T07:47:12;6.75;;;2.63;;
76745;SDS011;65671;49.976;20.038;2023-02-01T07:52:03;5.05;;;2.92;;
76745;SDS011;65671;49.976;20.038;2023-02-01T07:56:54;6.53;;;2.50;;
76745;SDS011;65671;49.976;20.038;2023-02-01T08:01:45;7.97;;;2.80;;
76745;SDS011;65671;49.976;20.038;2023-02-01T08:06:37;6.22;;;2.38;;
76745;SDS011;65671;49.976;20.038;2023-02-01T08:09:04;4.15;;;2.67;;
76745;SDS011;65671;49.976;20.038;2023-02-01T08:11:32;8.15;;;3.17;;
76745;SDS011;65671;49.976;20.038;2023-02-01T08:16:24;7.55;;;3.15;;
76745;SDS011;65671;49.976;20.038;2023-02-01T08:18:51;12.82;;;3.28;;
76745;SDS011;65671;49.976;20.038;2023-02-01T08:21:18;6.57;;;2.92;;
76745;SDS011;65671;49.976;20.038;2023-02-01T08:23:47;9.13;;;2.95;;
76745;SDS011;65671;49.976;20.038;2023-02-01T08:28:51;9.77;;;3.00;;
76745;SDS011;65671;49.976;20.038;2023-02-01T08:31:18;6.20;;;3.20;;
76745;SDS011;65671;49.976;20.038;2023-02-01T08:33:50;7.80;;;3.30;;
76745;SDS011;65671;49.976;20.038;2023-02-01T08:36:19;8.73;;;2.60;;
76745;SDS011;65671;49.976;20.038;2023-02-01T08:38:45;7.18;;;2.50;;
76745;SDS011;65671;49.976;20.038;2023-02-01T08:41:13;5.53;;;2.53;;
76745;SDS011;65671;49.976;20.038;2023-02-01T08:43:40;6.13;;;2.30;;
76745;SDS011;65671;49.976;20.038;2023-02-01T08:46:06;6.38;;;2.58;;
76745;SDS011;65671;49.976;20.038;2023-02-01T08:48:33;8.07;;;2.35;;
76745;SDS011;65671;49.976;20.038;2023-02-01T08:51:09;6.75;;;2.80;;
76745;SDS011;65671;49.976;20.038;2023-02-01T08:53:36;8.35;;;2.80;;
76745;SDS011;65671;49.976;20.038;2023-02-01T08:56:05;4.72;;;2.75;;
76745;SDS011;65671;49.976;20.038;2023-02-01T08:58:31;6.25;;;2.40;;
76745;SDS011;65671;49.976;20.038;2023-02-01T09:03:27;7.97;;;2.70;;
76745;SDS011;65671;49.976;20.038;2023-02-01T09:08:24;3.13;;;2.03;;
76745;SDS011;65671;49.976;20.038;2023-02-01T09:13:15;7.50;;;2.58;;
76745;SDS011;65671;49.976;20.038;2023-02-01T09:15:40;8.23;;;2.80;;
76745;SDS011;65671;49.976;20.038;2023-02-01T09:20:31;10.20;;;3.13;;
76745;SDS011;65671;49.976;20.038;2023-02-01T09:22:57;7.82;;;2.95;;
76745;SDS011;65671;49.976;20.038;2023-02-01T09:27:48;6.22;;;2.10;;
76745;SDS011;65671;49.976;20.038;2023-02-01T09:32:39;7.25;;;2.38;;
76745;SDS011;65671;49.976;20.038;2023-02-01T09:37:30;5.13;;;2.40;;
76745;SDS011;65671;49.976;20.038;2023-02-01T09:45:33;5.93;;;2.75;;
76745;SDS011;65671;49.976;20.038;2023-02-01T09:48:10;10.73;;;3.58;;
76745;SDS011;65671;49.976;20.038;2023-02-01T09:50:42;9.20;;;3.28;;
76745;SDS011;65671;49.976;20.038;2023-02-01T09:56:04;8.43;;;3.75;;
76745;SDS011;65671;49.976;20.038;2023-02-01T10:03:25;7.57;;;3.28;;
76745;SDS011;65671;49.976;20.038;2023-02-01T10:06:06;7.75;;;2.92;;
76745;SDS011;65671;49.976;20.038;2023-02-01T10:17:01;6.20;;;2.97;;
76745;SDS011;65671;49.976;20.038;2023-02-01T10:19:43;5.53;;;2.75;;
76745;SDS011;65671;49.976;20.038;2023-02-01T10:22:42;8.13;;;2.78;;
76745;SDS011;65671;49.976;20.038;2023-02-01T10:25:14;10.25;;;2.83;;
76745;SDS011;65671;49.976;20.038;2023-02-01T10:27:48;7.78;;;2.97;;
76745;SDS011;65671;49.976;20.038;2023-02-01T10:30:17;7.30;;;3.20;;
76745;SDS011;65671;49.976;20.038;2023-02-01T10:33:07;4.75;;;2.83;;
76745;SDS011;65671;49.976;20.038;2023-02-01T10:35:43;9.18;;;3.45;;
76745;SDS011;65671;49.976;20.038;2023-02-01T10:38:20;15.77;;;4.82;;
76745;SDS011;65671;49.976;20.038;2023-02-01T10:41:03;6.57;;;2.45;;
76745;SDS011;65671;49.976;20.038;2023-02-01T10:43:36;5.93;;;3.20;;
76745;SDS011;65671;49.976;20.038;2023-02-01T10:46:04;9.32;;;3.90;;
76745;SDS011;65671;49.976;20.038;2023-02-01T10:48:31;6.47;;;2.95;;
76745;SDS011;65671;49.976;20.038;2023-02-01T10:55:54;9.60;;;3.30;;
76745;SDS011;65671;49.976;20.038;2023-02-01T10:58:31;7.10;;;3.33;;
76745;SDS011;65671;49.976;20.038;2023-02-01T11:01:04;7.82;;;4.18;;
76745;SDS011;65671;49.976;20.038;2023-02-01T11:03:42;10.40;;;4.30;;
76745;SDS011;65671;49.976;20.038;2023-02-01T11:08:46;13.82;;;4.43;;
76745;SDS011;65671;49.976;20.038;2023-02-01T11:11:18;8.52;;;4.15;;
76745;SDS011;65671;49.976;20.038;2023-02-01T11:13:45;9.45;;;4.18;;
76745;SDS011;65671;49.976;20.038;2023-02-01T11:16:18;7.88;;;3.75;;
76745;SDS011;65671;49.976;20.038;2023-02-01T11:18:44;12.52;;;4.22;;
76745;SDS011;65671;49.976;20.038;2023-02-01T11:23:39;10.13;;;3.58;;
76745;SDS011;65671;49.976;20.038;2023-02-01T11:26:13;7.55;;;3.92;;
76745;SDS011;65671;49.976;20.038;2023-02-01T11:28:58;11.27;;;4.07;;
76745;SDS011;65671;49.976;20.038;2023-02-01T11:31:28;5.70;;;3.72;;
76745;SDS011;65671;49.976;20.038;2023-02-01T11:34:04;7.78;;;3.33;;
76745;SDS011;65671;49.976;20.038;2023-02-01T11:36:39;6.72;;;3.60;;
76745;SDS011;65671;49.976;20.038;2023-02-01T11:42:03;4.72;;;3.10;;
76745;SDS011;65671;49.976;20.038;2023-02-01T11:44:31;6.65;;;3.35;;
76745;SDS011;65671;49.976;20.038;2023-02-01T11:47:12;6.97;;;3.50;;
76745;SDS011;65671;49.976;20.038;2023-02-01T11:49:59;8.27;;;3.65;;
76745;SDS011;65671;49.976;20.038;2023-02-01T11:55:10;4.30;;;2.75;;
76745;SDS011;65671;49.976;20.038;2023-02-01T12:00:51;6.15;;;3.38;;
76745;SDS011;65671;49.976;20.038;2023-02-01T12:03:37;9.23;;;3.53;;
76745;SDS011;65671;49.976;20.038;2023-02-01T12:09:14;10.73;;;4.03;;
76745;SDS011;65671;49.976;20.038;2023-02-01T12:17:18;8.55;;;4.13;;
76745;SDS011;65671;49.976;20.038;2023-02-01T12:25:31;7.63;;;3.55;;
76745;SDS011;65671;49.976;20.038;2023-02-01T12:34:11;10.07;;;4.07;;
76745;SDS011;65671;49.976;20.038;2023-02-01T12:40:35;8.90;;;4.32;;
76745;SDS011;65671;49.976;20.038;2023-02-01T12:45:51;7.55;;;4.05;;
76745;SDS011;65671;49.976;20.038;2023-02-01T12:48:26;6.72;;;3.92;;
76745;SDS011;65671;49.976;20.038;2023-02-01T12:50:57;10.05;;;3.65;;
76745;SDS011;65671;49.976;20.038;2023-02-01T12:53:33;9.85;;;4.45;;
76745;SDS011;65671;49.976;20.038;2023-02-01T12:56:14;7.38;;;4.78;;
76745;SDS011;65671;49.976;20.038;2023-02-01T13:04:23;9.35;;;4.82;;
76745;SDS011;65671;49.976;20.038;2023-02-01T13:06:52;12.93;;;5.90;;
76745;SDS011;65671;49.976;20.038;2023-02-01T13:09:28;14.00;;;6.05;;
76745;SDS011;65671;49.976;20.038;2023-02-01T13:12:22;9.90;;;5.22;;
76745;SDS011;65671;49.976;20.038;2023-02-01T13:17:30;10.45;;;5.18;;
76745;SDS011;65671;49.976;20.038;2023-02-01T13:20:19;16.15;;;6.10;;
76745;SDS011;65671;49.976;20.038;2023-02-01T13:22:51;14.18;;;5.75;;
76745;SDS011;65671;49.976;20.038;2023-02-01T13:25:30;30.95;;;10.00;;
76745;SDS011;65671;49.976;20.038;2023-02-01T13:28:03;13.15;;;5.80;;
76745;SDS011;65671;49.976;20.038;2023-02-01T13:30:45;21.27;;;6.20;;
76745;SDS011;65671;49.976;20.038;2023-02-01T13:33:18;16.98;;;5.10;;
76745;SDS011;65671;49.976;20.038;2023-02-01T13:36:41;8.43;;;4.03;;
76745;SDS011;65671;49.976;20.038;2023-02-01T13:42:25;6.28;;;3.38;;
76745;SDS011;65671;49.976;20.038;2023-02-01T13:45:03;12.40;;;5.13;;
76745;SDS011;65671;49.976;20.038;2023-02-01T13:47:40;12.40;;;4.82;;
76745;SDS011;65671;49.976;20.038;2023-02-01T13:50:28;7.38;;;3.90;;
76745;SDS011;65671;49.976;20.038;2023-02-01T13:55:45;6.72;;;3.20;;
76745;SDS011;65671;49.976;20.038;2023-02-01T13:58:20;7.60;;;3.85;;
76745;SDS011;65671;49.976;20.038;2023-02-01T14:11:54;7.13;;;3.95;;
76745;SDS011;65671;49.976;20.038;2023-02-01T14:19:21;4.72;;;3.30;;
76745;SDS011;65671;49.976;20.038;2023-02-01T14:21:55;8.48;;;3.63;;
76745;SDS011;65671;49.976;20.038;2023-02-01T14:24:31;6.05;;;2.95;;
76745;SDS011;65671;49.976;20.038;2023-02-01T14:26:59;7.57;;;3.20;;
76745;SDS011;65671;49.976;20.038;2023-02-01T14:29:43;6.78;;;3.30;;
76745;SDS011;65671;49.976;20.038;2023-02-01T14:32:23;8.10;;;3.63;;
76745;SDS011;65671;49.976;20.038;2023-02-01T14:35:05;7.25;;;3.40;;
76745;SDS011;65671;49.976;20.038;2023-02-01T14:37:36;6.63;;;4.38;;
76745;SDS011;65671;49.976;20.038;2023-02-01T14:52:51;9.80;;;3.97;;
76745;SDS011;65671;49.976;20.038;2023-02-01T15:01:34;6.93;;;4.35;;
76745;SDS011;65671;49.976;20.038;2023-02-01T15:07:03;9.02;;;3.70;;
76745;SDS011;65671;49.976;20.038;2023-02-01T15:09:50;4.65;;;3.25;;
76745;SDS011;65671;49.976;20.038;2023-02-01T15:12:18;4.82;;;3.28;;
76745;SDS011;65671;49.976;20.038;2023-02-01T15:17:49;5.43;;;3.72;;
76745;SDS011;65671;49.976;20.038;2023-02-01T15:20:18;5.75;;;3.67;;
76745;SDS011;65671;49.976;20.038;2023-02-01T15:23:01;7.47;;;4.22;;
76745;SDS011;65671;49.976;20.038;2023-02-01T15:25:30;9.13;;;5.45;;
76745;SDS011;65671;49.976;20.038;2023-02-01T15:28:00;5.20;;;3.63;;
76745;SDS011;65671;49.976;20.038;2023-02-01T15:30:27;7.40;;;4.15;;
76745;SDS011;65671;49.976;20.038;2023-02-01T15:33:08;7.80;;;4.18;;
76745;SDS011;65671;49.976;20.038;2023-02-01T15:35:42;6.95;;;3.85;;
76745;SDS011;65671;49.976;20.038;2023-02-01T15:41:08;8.90;;;5.32;;
76745;SDS011;65671;49.976;20.038;2023-02-01T15:46:13;7.20;;;4.75;;
76745;SDS011;65671;49.976;20.038;2023-02-01T15:48:46;6.30;;;4.25;;
76745;SDS011;65671;49.976;20.038;2023-02-01T15:51:19;7.82;;;4.68;;
76745;SDS011;65671;49.976;20.038;2023-02-01T15:53:57;8.82;;;5.68;;
76745;SDS011;65671;49.976;20.038;2023-02-01T15:56:27;11.27;;;6.43;;
76745;SDS011;65671;49.976;20.038;2023-02-01T15:58:59;7.88;;;4.97;;
76745;SDS011;65671;49.976;20.038;2023-02-01T16:01:27;9.85;;;6.00;;
76745;SDS011;65671;49.976;20.038;2023-02-01T16:06:47;7.72;;;5.03;;
76745;SDS011;65671;49.976;20.038;2023-02-01T16:09:22;9.60;;;5.38;;
76745;SDS011;65671;49.976;20.038;2023-02-01T16:11:57;10.98;;;5.75;;
76745;SDS011;65671;49.976;20.038;2023-02-01T16:14:24;8.10;;;5.53;;
76745;SDS011;65671;49.976;20.038;2023-02-01T16:16:51;11.13;;;6.63;;
76745;SDS011;65671;49.976;20.038;2023-02-01T16:19:18;10.95;;;6.38;;
76745;SDS011;65671;49.976;20.038;2023-02-01T16:21:45;15.25;;;6.90;;
76745;SDS011;65671;49.976;20.038;2023-02-01T16:24:11;11.48;;;6.18;;
76745;SDS011;65671;49.976;20.038;2023-02-01T16:26:37;11.30;;;6.88;;
76745;SDS011;65671;49.976;20.038;2023-02-01T16:29:03;12.35;;;6.68;;
76745;SDS011;65671;49.976;20.038;2023-02-01T16:31:32;13.25;;;7.68;;
76745;SDS011;65671;49.976;20.038;2023-02-01T16:34:01;8.88;;;5.03;;
76745;SDS011;65671;49.976;20.038;2023-02-01T16:36:27;11.73;;;6.78;;
76745;SDS011;65671;49.976;20.038;2023-02-01T16:38:54;9.98;;;6.63;;
76745;SDS011;65671;49.976;20.038;2023-02-01T16:41:21;7.97;;;5.15;;
76745;SDS011;65671;49.976;20.038;2023-02-01T16:43:53;13.07;;;7.03;;
76745;SDS011;65671;49.976;20.038;2023-02-01T16:46:21;10.55;;;6.63;;
76745;SDS011;65671;49.976;20.038;2023-02-01T16:48:59;9.07;;;6.28;;
76745;SDS011;65671;49.976;20.038;2023-02-01T16:51:26;10.75;;;6.25;;
76745;SDS011;65671;49.976;20.038;2023-02-01T16:53:57;9.32;;;5.55;;
76745;SDS011;65671;49.976;20.038;2023-02-01T16:56:24;14.00;;;7.07;;
76745;SDS011;65671;49.976;20.038;2023-02-01T16:58:54;11.93;;;6.07;;
76745;SDS011;65671;49.976;20.038;2023-02-01T17:01:20;14.10;;;6.57;;
76745;SDS011;65671;49.976;20.038;2023-02-01T17:06:13;9.15;;;5.43;;
76745;SDS011;65671;49.976;20.038;2023-02-01T17:08:42;9.23;;;6.40;;
76745;SDS011;65671;49.976;20.038;2023-02-01T17:11:15;11.20;;;6.32;;
76745;SDS011;65671;49.976;20.038;2023-02-01T17:13:41;11.52;;;6.38;;
76745;SDS011;65671;49.976;20.038;2023-02-01T17:16:20;11.18;;;7.45;;
76745;SDS011;65671;49.976;20.038;2023-02-01T17:19:00;13.98;;;8.60;;
76745;SDS011;65671;49.976;20.038;2023-02-01T17:21:30;11.65;;;6.75;;
76745;SDS011;65671;49.976;20.038;2023-02-01T17:24:05;11.57;;;6.88;;
76745;SDS011;65671;49.976;20.038;2023-02-01T17:26:31;12.75;;;6.63;;
76745;SDS011;65671;49.976;20.038;2023-02-01T17:28:56;11.85;;;6.43;;
76745;SDS011;65671;49.976;20.038;2023-02-01T17:31:22;13.05;;;7.03;;
76745;SDS011;65671;49.976;20.038;2023-02-01T17:36:14;11.50;;;5.95;;
76745;SDS011;65671;49.976;20.038;2023-02-01T17:38:41;12.43;;;6.55;;
76745;SDS011;65671;49.976;20.038;2023-02-01T17:41:11;9.30;;;5.45;;
76745;SDS011;65671;49.976;20.038;2023-02-01T17:43:40;9.13;;;5.47;;
76745;SDS011;65671;49.976;20.038;2023-02-01T17:46:10;14.60;;;6.43;;
76745;SDS011;65671;49.976;20.038;2023-02-01T17:48:36;9.77;;;6.40;;
76745;SDS011;65671;49.976;20.038;2023-02-01T17:51:03;12.25;;;5.15;;
76745;SDS011;65671;49.976;20.038;2023-02-01T17:53:29;13.65;;;6.43;;
76745;SDS011;65671;49.976;20.038;2023-02-01T17:55:55;11.13;;;5.40;;
76745;SDS011;65671;49.976;20.038;2023-02-01T17:58:25;10.20;;;4.90;;
76745;SDS011;65671;49.976;20.038;2023-02-01T18:00:56;12.70;;;5.97;;
76745;SDS011;65671;49.976;20.038;2023-02-01T18:03:23;9.70;;;5.13;;
76745;SDS011;65671;49.976;20.038;2023-02-01T18:05:51;13.82;;;5.15;;
76745;SDS011;65671;49.976;20.038;2023-02-01T18:08:18;15.18;;;6.45;;
76745;SDS011;65671;49.976;20.038;2023-02-01T18:10:50;8.18;;;4.68;;
76745;SDS011;65671;49.976;20.038;2023-02-01T18:13:23;9.07;;;4.35;;
76745;SDS011;65671;49.976;20.038;2023-02-01T18:15:49;10.80;;;4.97;;
76745;SDS011;65671;49.976;20.038;2023-02-01T18:18:14;11.95;;;4.95;;
76745;SDS011;65671;49.976;20.038;2023-02-01T18:20:40;12.98;;;5.30;;
76745;SDS011;65671;49.976;20.038;2023-02-01T18:23:12;9.18;;;5.28;;
76745;SDS011;65671;49.976;20.038;2023-02-01T18:25:48;7.03;;;4.05;;
76745;SDS011;65671;49.976;20.038;2023-02-01T18:28:16;9.25;;;5.20;;
76745;SDS011;65671;49.976;20.038;2023-02-01T18:30:46;10.38;;;5.85;;
76745;SDS011;65671;49.976;20.038;2023-02-01T18:33:13;12.35;;;4.82;;
76745;SDS011;65671;49.976;20.038;2023-02-01T18:35:41;10.63;;;4.65;;
76745;SDS011;65671;49.976;20.038;2023-02-01T18:38:07;15.38;;;7.50;;
76745;SDS011;65671;49.976;20.038;2023-02-01T18:40:34;12.73;;;5.75;;
76745;SDS011;65671;49.976;20.038;2023-02-01T18:43:15;10.75;;;6.13;;
76745;SDS011;65671;49.976;20.038;2023-02-01T18:45:41;15.10;;;7.35;;
76745;SDS011;65671;49.976;20.038;2023-02-01T18:48:12;15.90;;;7.85;;
76745;SDS011;65671;49.976;20.038;2023-02-01T18:50:40;19.13;;;8.65;;
76745;SDS011;65671;49.976;20.038;2023-02-01T18:53:10;13.43;;;6.05;;
76745;SDS011;65671;49.976;20.038;2023-02-01T18:55:41;13.70;;;7.60;;
76745;SDS011;65671;49.976;20.038;2023-02-01T18:58:06;19.92;;;8.57;;
76745;SDS011;65671;49.976;20.038;2023-02-01T19:00:34;17.42;;;8.55;;
76745;SDS011;65671;49.976;20.038;2023-02-01T19:03:00;17.13;;;8.15;;
76745;SDS011;65671;49.976;20.038;2023-02-01T19:07:52;20.63;;;7.60;;
76745;SDS011;65671;49.976;20.038;2023-02-01T19:10:18;25.42;;;10.25;;
76745;SDS011;65671;49.976;20.038;2023-02-01T19:12:49;13.48;;;7.10;;
76745;SDS011;65671;49.976;20.038;2023-02-01T19:15:16;15.95;;;8.32;;